createdAt,value
2019-02-03T00:00:01.811Z,47.51
2019-02-03T00:02:50.818Z,47.21
2019-02-03T00:05:39.818Z,47.37
2019-02-03T00:08:09.825Z,47.36
2019-02-03T00:10:39.739Z,47.12
2019-02-03T00:13:40.360Z,47.30
2019-02-03T00:22:08.777Z,47.04
2019-02-03T00:24:41.365Z,46.81
2019-02-03T00:30:36.029Z,46.39
2019-02-03T00:33:25.205Z,46.65
2019-02-03T00:39:21.917Z,45.97
2019-02-03T00:44:53.683Z,46.18
2019-02-03T00:47:42.836Z,46.55
2019-02-03T00:50:32.525Z,46.26
2019-02-03T00:53:21.654Z,46.60
2019-02-03T00:56:10.611Z,47.05
2019-02-03T01:04:49.720Z,46.93
2019-02-03T01:07:27.198Z,47.09
2019-02-03T01:10:22.623Z,47.00
2019-02-03T01:12:52.704Z,47.03
2019-02-03T01:15:42.672Z,46.69
2019-02-03T01:18:14.607Z,46.97
2019-02-03T01:20:46.352Z,47.07
2019-02-03T01:23:17.280Z,47.23
2019-02-03T01:25:48.203Z,47.14
2019-02-03T01:28:19.161Z,47.09
2019-02-03T01:30:50.075Z,46.89
2019-02-03T01:33:42.552Z,46.90
2019-02-03T01:36:12.602Z,46.58
2019-02-03T01:38:42.870Z,46.58
2019-02-03T01:41:12.913Z,46.61
2019-02-03T01:43:43.752Z,46.85
2019-02-03T01:46:14.223Z,47.04
2019-02-03T01:49:02.980Z,46.85
2019-02-03T01:51:52.231Z,46.76
2019-02-03T01:54:42.194Z,46.91
2019-02-03T01:57:32.165Z,47.01
2019-02-03T02:00:02.262Z,46.79
2019-02-03T02:05:40.816Z,47.12
2019-02-03T02:08:30.852Z,47.01
2019-02-03T02:11:02.827Z,46.61
2019-02-03T02:13:53.544Z,46.81
2019-02-03T02:16:26.331Z,47.07
2019-02-03T02:19:17.865Z,47.15
2019-02-03T02:21:48.736Z,46.92
2019-02-03T02:24:21.936Z,47.07
2019-02-03T02:27:10.912Z,46.70
2019-02-03T02:30:11.873Z,46.66
2019-02-03T02:32:31.756Z,46.23
2019-02-03T02:35:21.761Z,46.34
2019-02-03T02:38:05.243Z,45.73
2019-02-03T02:41:00.038Z,45.88
2019-02-03T02:46:38.517Z,45.94
2019-02-03T02:49:09.238Z,46.01
2019-02-03T02:51:40.190Z,46.59
2019-02-03T02:54:32.669Z,46.82
2019-02-03T02:57:15.048Z,46.82
2019-02-03T03:00:05.342Z,46.89
2019-02-03T03:02:55.073Z,46.71
2019-02-03T03:05:45.139Z,47.49
2019-02-03T03:08:30.167Z,47.49
2019-02-03T03:11:12.504Z,47.24
2019-02-03T03:14:01.839Z,47.30
2019-02-03T03:17:02.714Z,47.10
2019-02-03T03:25:06.989Z,46.78
2019-02-03T03:27:38.052Z,46.52
2019-02-03T03:30:23.843Z,46.32
2019-02-03T03:32:54.947Z,45.34
2019-02-03T03:35:44.048Z,45.69
2019-02-03T03:38:47.447Z,45.17
2019-02-03T03:44:38.681Z,45.37
2019-02-03T03:47:28.371Z,45.58
2019-02-03T03:49:59.278Z,45.11
2019-02-03T03:52:42.487Z,45.28
2019-02-03T03:55:42.466Z,45.47
2019-02-03T03:58:13.613Z,45.64
2019-02-03T04:04:07.175Z,45.64
2019-02-03T04:10:06.433Z,46.11
2019-02-03T04:12:59.243Z,46.11
2019-02-03T04:15:41.606Z,45.73
2019-02-03T04:18:11.542Z,45.73
2019-02-03T04:23:33.864Z,46.00
2019-02-03T04:26:23.441Z,46.35
2019-02-03T04:31:58.269Z,46.01
2019-02-03T04:35:09.390Z,46.42
2019-02-03T04:37:39.356Z,46.09
2019-02-03T04:40:15.196Z,46.17
2019-02-03T04:42:45.953Z,45.81
2019-02-03T04:45:17.375Z,46.14
2019-02-03T04:48:06.338Z,46.20
2019-02-03T04:50:36.473Z,45.25
2019-02-03T04:53:39.521Z,44.98
2019-02-03T04:55:58.801Z,45.09
2019-02-03T04:58:28.898Z,45.27
2019-02-03T05:01:17.979Z,44.90
2019-02-03T05:04:00.572Z,44.68
2019-02-03T05:06:53.115Z,45.06
2019-02-03T05:10:01.152Z,44.80
2019-02-03T05:12:54.117Z,44.47
2019-02-03T05:15:35.864Z,44.68
2019-02-03T05:18:06.620Z,44.65
2019-02-03T05:23:44.176Z,44.49
2019-02-03T05:26:14.345Z,44.53
2019-02-03T05:28:44.416Z,44.46
2019-02-03T05:31:16.348Z,44.72
2019-02-03T05:36:47.080Z,44.99
2019-02-03T05:39:28.893Z,45.02
2019-02-03T05:41:48.695Z,43.84
2019-02-03T05:44:18.686Z,43.84
2019-02-03T05:46:50.235Z,44.53
2019-02-03T05:49:20.278Z,44.69
2019-02-03T05:52:10.224Z,44.53
2019-02-03T05:54:40.147Z,44.78
2019-02-03T05:57:29.568Z,45.15
2019-02-03T06:03:01.813Z,44.59
2019-02-03T06:08:41.636Z,44.70
2019-02-03T06:11:11.494Z,44.85
2019-02-03T06:14:00.241Z,44.62
2019-02-03T06:16:30.137Z,44.23
2019-02-03T06:19:00.020Z,43.45
2019-02-03T06:21:30.029Z,42.84
2019-02-03T06:24:19.024Z,42.60
2019-02-03T06:26:49.095Z,42.21
2019-02-03T06:29:37.811Z,42.74
2019-02-03T06:32:07.772Z,42.63
2019-02-03T06:34:37.839Z,42.28
2019-02-03T06:37:58.670Z,42.73
2019-02-03T06:40:17.431Z,42.66
2019-02-03T06:43:06.576Z,42.40
2019-02-03T06:49:13.493Z,42.07
2019-02-03T06:51:43.468Z,42.06
2019-02-03T06:54:13.400Z,41.82
2019-02-03T06:57:02.335Z,41.12
2019-02-03T06:59:32.266Z,41.15
2019-02-03T07:02:23.829Z,41.34
2019-02-03T07:05:12.838Z,41.02
2019-02-03T07:08:01.792Z,41.04
2019-02-03T07:10:31.776Z,41.06
2019-02-03T07:15:30.199Z,41.39
2019-02-03T07:18:03.374Z,41.66
2019-02-03T07:20:52.299Z,41.77
2019-02-03T07:27:00.511Z,41.82
2019-02-03T07:29:51.236Z,42.02
2019-02-03T07:32:40.318Z,42.00
2019-02-03T07:35:11.870Z,41.68
2019-02-03T07:38:00.962Z,41.70
2019-02-03T07:43:40.546Z,41.08
2019-02-03T07:46:10.621Z,40.94
2019-02-03T07:48:59.680Z,41.10
2019-02-03T07:52:01.912Z,41.46
2019-02-03T07:54:40.613Z,41.48
2019-02-03T07:57:49.955Z,41.24
2019-02-03T08:00:59.380Z,41.26
2019-02-03T08:03:48.155Z,41.36
2019-02-03T08:06:37.401Z,41.08
2019-02-03T08:09:28.391Z,41.30
2019-02-03T08:12:17.549Z,41.20
2019-02-03T08:18:12.710Z,40.94
2019-02-03T08:20:42.667Z,41.32
2019-02-03T08:23:13.986Z,40.85
2019-02-03T08:25:44.198Z,40.51
2019-02-03T08:28:33.273Z,40.26
2019-02-03T08:31:20.355Z,39.48
2019-02-03T08:33:50.361Z,39.48
2019-02-03T08:36:39.320Z,39.83
2019-02-03T08:42:11.007Z,39.54
2019-02-03T08:44:41.058Z,39.38
2019-02-03T08:47:45.294Z,39.05
2019-02-03T08:50:04.235Z,39.34
2019-02-03T08:52:53.445Z,39.47
2019-02-03T08:58:22.721Z,38.86
2019-02-03T09:01:33.785Z,39.03
2019-02-03T09:04:22.894Z,39.33
2019-02-03T09:07:12.902Z,39.33
2019-02-03T09:09:42.938Z,39.25
2019-02-03T09:12:15.732Z,39.05
2019-02-03T09:14:44.513Z,39.01
2019-02-03T09:17:14.495Z,38.83
2019-02-03T09:20:06.075Z,38.48
2019-02-03T09:25:35.622Z,38.08
2019-02-03T09:31:02.352Z,37.98
2019-02-03T09:33:21.821Z,38.19
2019-02-03T09:36:14.736Z,37.88
2019-02-03T09:45:12.244Z,38.03
2019-02-03T09:47:20.665Z,38.28
2019-02-03T09:49:52.690Z,37.64
2019-02-03T09:52:24.279Z,37.96
2019-02-03T09:54:54.237Z,38.15
2019-02-03T10:01:10.527Z,38.32
2019-02-03T10:03:41.797Z,37.88
2019-02-03T10:06:11.672Z,37.88
2019-02-03T10:08:41.759Z,37.78
2019-02-03T10:11:30.791Z,37.81
2019-02-03T10:17:21.874Z,37.64
2019-02-03T10:22:53.702Z,37.64
2019-02-03T10:25:44.015Z,37.34
2019-02-03T10:28:35.299Z,37.31
2019-02-03T10:31:05.385Z,37.90
2019-02-03T10:34:15.101Z,37.75
2019-02-03T10:39:53.239Z,37.20
2019-02-03T10:42:23.270Z,37.36
2019-02-03T10:48:22.971Z,36.42
2019-02-03T10:55:03.958Z,36.47
2019-02-03T10:57:49.426Z,36.79
2019-02-03T11:00:30.682Z,37.70
2019-02-03T11:03:22.543Z,37.70
2019-02-03T11:05:54.196Z,37.56
2019-02-03T11:08:49.461Z,37.52
2019-02-03T11:11:19.538Z,37.30
2019-02-03T11:14:29.128Z,38.08
2019-02-03T11:20:27.384Z,38.11
2019-02-03T11:23:53.114Z,37.96
2019-02-03T11:26:29.879Z,37.67
2019-02-03T11:34:45.271Z,38.08
2019-02-03T11:37:34.002Z,38.28
2019-02-03T11:40:22.824Z,38.06
2019-02-03T11:49:47.601Z,37.92
2019-02-03T11:55:09.161Z,38.23
2019-02-03T12:03:49.682Z,37.77
2019-02-03T12:06:20.218Z,37.60
2019-02-03T12:08:50.247Z,37.24
2019-02-03T12:11:20.231Z,37.44
2019-02-03T12:13:50.228Z,37.27
2019-02-03T12:16:20.266Z,37.53
2019-02-03T12:18:50.169Z,37.27
2019-02-03T12:21:39.405Z,37.15
2019-02-03T12:27:42.441Z,37.32
2019-02-03T12:30:27.516Z,36.60
2019-02-03T12:33:16.461Z,36.51
2019-02-03T12:35:46.447Z,36.73
2019-02-03T12:38:16.442Z,36.69
2019-02-03T12:44:05.887Z,37.10
2019-02-03T12:49:36.322Z,36.77
2019-02-03T12:55:39.051Z,37.07
2019-02-03T12:58:28.054Z,36.92
2019-02-03T13:00:59.893Z,36.55
2019-02-03T13:03:50.461Z,36.05
2019-02-03T13:06:20.447Z,35.75
2019-02-03T13:09:30.919Z,35.55
2019-02-03T13:12:00.940Z,35.55
2019-02-03T13:17:49.290Z,35.67
2019-02-03T13:23:19.689Z,35.35
2019-02-03T13:28:41.202Z,35.95
2019-02-03T13:31:30.206Z,35.59
2019-02-03T13:34:38.187Z,35.57
2019-02-03T13:37:08.213Z,35.80
2019-02-03T13:39:38.223Z,36.07
2019-02-03T13:42:36.831Z,35.68
2019-02-03T13:45:21.989Z,34.75
2019-02-03T13:48:26.135Z,34.75
2019-02-03T13:57:06.463Z,34.66
2019-02-03T13:59:56.423Z,34.80
2019-02-03T14:02:46.359Z,35.31
2019-02-03T14:05:20.250Z,34.99
2019-02-03T14:08:08.986Z,35.38
2019-02-03T14:10:40.225Z,35.63
2019-02-03T14:13:48.792Z,35.47
2019-02-03T14:16:41.214Z,35.35
2019-02-03T14:19:13.542Z,35.51
2019-02-03T14:24:46.862Z,35.86
2019-02-03T14:27:49.746Z,35.48
2019-02-03T14:33:36.249Z,35.13
2019-02-03T14:36:19.029Z,35.02
2019-02-03T14:38:58.586Z,35.47
2019-02-03T14:41:50.011Z,35.46
2019-02-03T14:44:36.389Z,35.16
2019-02-03T14:47:15.233Z,35.20
2019-02-03T14:49:47.264Z,34.87
2019-02-03T14:52:36.251Z,35.22
2019-02-03T14:55:27.667Z,35.66
2019-02-03T14:58:17.404Z,35.60
2019-02-03T15:01:40.203Z,35.61
2019-02-03T15:04:23.812Z,35.67
2019-02-03T15:07:14.862Z,35.69
2019-02-03T15:10:05.337Z,35.13
2019-02-03T15:12:54.338Z,34.94
2019-02-03T15:16:06.267Z,34.62
2019-02-03T15:22:07.612Z,35.12
2019-02-03T15:24:40.832Z,34.59
2019-02-03T15:27:30.716Z,34.84
2019-02-03T15:30:24.247Z,34.86
2019-02-03T15:33:17.248Z,34.86
2019-02-03T15:36:07.115Z,34.50
2019-02-03T15:39:11.109Z,34.75
2019-02-03T15:41:29.614Z,34.52
2019-02-03T15:44:19.260Z,34.04
2019-02-03T15:47:04.064Z,34.26
2019-02-03T15:52:38.185Z,33.91
2019-02-03T15:55:18.791Z,34.35
2019-02-03T15:57:49.571Z,34.68
2019-02-03T16:03:50.087Z,34.87
2019-02-03T16:06:41.717Z,34.39
2019-02-03T16:09:13.392Z,33.78
2019-02-03T16:14:44.592Z,33.48
2019-02-03T16:17:36.115Z,33.76
2019-02-03T16:23:39.265Z,33.28
2019-02-03T16:26:10.151Z,32.82
2019-02-03T16:29:00.386Z,32.87
2019-02-03T16:31:31.342Z,32.89
2019-02-03T16:34:42.857Z,32.87
2019-02-03T16:40:22.100Z,33.73
2019-02-03T16:43:23.204Z,33.98
2019-02-03T16:49:36.212Z,34.10
2019-02-03T16:52:07.446Z,34.25
2019-02-03T16:54:58.514Z,34.25
2019-02-03T17:00:24.634Z,34.65
2019-02-03T17:03:29.484Z,34.90
2019-02-03T17:06:21.303Z,35.05
2019-02-03T17:09:27.857Z,34.77
2019-02-03T17:12:10.591Z,34.83
2019-02-03T17:14:42.367Z,34.68
2019-02-03T17:21:01.935Z,34.71
2019-02-03T17:26:08.329Z,35.11
2019-02-03T17:29:15.259Z,34.87
2019-02-03T17:38:32.882Z,35.15
2019-02-03T17:41:15.110Z,35.56
2019-02-03T17:44:12.763Z,35.58
2019-02-03T17:46:59.316Z,35.43
2019-02-03T17:55:42.251Z,36.24
2019-02-03T17:58:24.844Z,36.72
2019-02-03T18:01:21.017Z,36.90
2019-02-03T18:10:23.502Z,37.26
2019-02-03T18:16:09.228Z,37.32
2019-02-03T18:19:02.709Z,37.31
2019-02-03T18:21:53.468Z,37.73
2019-02-03T18:24:43.323Z,37.73
2019-02-03T18:27:14.985Z,37.55
2019-02-03T18:36:11.094Z,37.85
2019-02-03T18:39:24.412Z,37.95
2019-02-03T18:45:25.038Z,37.66
2019-02-03T18:48:14.993Z,37.95
2019-02-03T18:50:45.708Z,38.50
2019-02-03T18:56:44.602Z,38.76
2019-02-03T19:02:40.158Z,38.87
2019-02-03T19:05:31.966Z,39.00
2019-02-03T19:11:32.657Z,39.05
2019-02-03T19:14:02.645Z,38.49
2019-02-03T19:17:08.853Z,38.58
2019-02-03T19:20:01.781Z,38.46
2019-02-03T19:25:44.657Z,38.79
2019-02-03T19:28:36.151Z,38.78
2019-02-03T19:34:34.694Z,38.82
2019-02-03T19:37:05.928Z,39.07
2019-02-03T19:39:58.067Z,39.30
2019-02-03T19:45:36.542Z,39.90
2019-02-03T19:48:47.073Z,40.10
2019-02-03T19:55:01.597Z,40.48
2019-02-03T20:00:41.835Z,41.03
2019-02-03T20:03:59.215Z,41.27
2019-02-03T20:09:56.756Z,41.04
2019-02-03T20:12:26.734Z,41.51
2019-02-03T20:15:23.811Z,41.69
2019-02-03T20:20:55.696Z,41.28
2019-02-03T20:26:15.552Z,41.37
2019-02-03T20:32:18.734Z,41.52
2019-02-03T20:40:25.142Z,41.47
2019-02-03T20:43:01.459Z,41.08
2019-02-03T20:46:12.792Z,41.18
2019-02-03T20:48:45.675Z,41.29
2019-02-03T20:51:18.441Z,41.51
2019-02-03T20:53:55.269Z,41.29
2019-02-03T20:56:26.317Z,41.41
2019-02-03T20:59:00.179Z,41.28
2019-02-03T21:01:41.866Z,41.25
2019-02-03T21:04:22.487Z,41.25
2019-02-03T21:19:35.453Z,41.90
2019-02-03T21:22:45.652Z,42.15
2019-02-03T21:25:48.462Z,42.50
2019-02-03T21:28:57.936Z,42.94
2019-02-03T21:37:36.455Z,43.65
2019-02-03T21:46:54.820Z,44.34
2019-02-03T21:49:37.309Z,44.50
2019-02-03T21:52:27.359Z,44.59
2019-02-03T21:58:08.831Z,44.80
2019-02-03T22:01:00.599Z,44.59
2019-02-03T22:04:02.404Z,44.21
2019-02-03T22:07:05.741Z,44.48
2019-02-03T22:10:18.821Z,44.19
2019-02-03T22:12:44.121Z,43.99
2019-02-03T22:18:49.816Z,44.24
2019-02-03T22:21:57.613Z,43.99
2019-02-03T22:24:25.855Z,44.13
2019-02-03T22:30:53.175Z,44.89
2019-02-03T22:34:01.067Z,45.05
2019-02-03T22:36:43.902Z,44.72
2019-02-03T22:39:21.572Z,44.39
2019-02-03T22:42:22.232Z,44.96
2019-02-03T22:45:14.252Z,45.38
2019-02-03T22:47:44.470Z,45.38
2019-02-03T22:50:35.212Z,45.20
2019-02-03T22:53:24.253Z,45.02
2019-02-03T22:56:33.143Z,44.38
2019-02-03T23:02:05.624Z,44.72
2019-02-03T23:04:38.125Z,45.14
2019-02-03T23:07:08.066Z,46.14
2019-02-03T23:09:58.060Z,46.36
2019-02-03T23:13:05.809Z,46.41
2019-02-03T23:15:55.644Z,46.97
2019-02-03T23:18:28.194Z,47.22
2019-02-03T23:21:16.892Z,47.46
2019-02-03T23:24:18.223Z,47.73
2019-02-03T23:26:57.037Z,47.69
2019-02-03T23:32:21.547Z,47.45
2019-02-03T23:35:14.667Z,47.43
2019-02-03T23:40:58.300Z,47.56
2019-02-03T23:46:30.132Z,47.86
2019-02-03T23:49:18.587Z,48.16
2019-02-03T23:52:07.488Z,47.98
2019-02-03T23:54:56.553Z,48.04
